sensor_id;sensor_type;location;lat;lon;timestamp;pressure;altitude;pressure_sealevel;temperature;humidity
48800;BME280;34611;47.964;7.982;2023-06-26T00:03:16;96834.28;;;16.90;67.43
48800;BME280;34611;47.964;7.982;2023-06-26T00:10:16;96832.47;;;16.91;67.37
48800;BME280;34611;47.964;7.982;2023-06-26T00:17:16;96838.53;;;16.91;67.46
48800;BME280;34611;47.964;7.982;2023-06-26T00:24:17;96849.03;;;16.91;67.42
48800;BME280;34611;47.964;7.982;2023-06-26T00:31:17;96846.41;;;16.91;67.41
48800;BME280;34611;47.964;7.982;2023-06-26T00:38:17;96844.63;;;16.92;67.51
48800;BME280;34611;47.964;7.982;2023-06-26T00:45:18;96841.16;;;16.91;67.38
48800;BME280;34611;47.964;7.982;2023-06-26T00:52:18;96843.78;;;16.91;67.38
48800;BME280;34611;47.964;7.982;2023-06-26T00:59:18;96850.03;;;16.90;67.50
48800;BME280;34611;47.964;7.982;2023-06-26T01:06:20;96850.03;;;16.90;67.42
48800;BME280;34611;47.964;7.982;2023-06-26T01:13:21;96848.22;;;16.91;67.44
48800;BME280;34611;47.964;7.982;2023-06-26T01:20:22;96853.47;;;16.91;67.44
48800;BME280;34611;47.964;7.982;2023-06-26T01:27:23;96839.53;;;16.90;67.34
48800;BME280;34611;47.964;7.982;2023-06-26T01:34:25;96831.66;;;16.90;67.26
48800;BME280;34611;47.964;7.982;2023-06-26T01:41:26;96826.41;;;16.90;67.50
48800;BME280;34611;47.964;7.982;2023-06-26T01:48:29;96821.16;;;16.90;67.39
48800;BME280;34611;47.964;7.982;2023-06-26T02:02:36;96818.53;;;16.90;67.41
48800;BME280;34611;47.964;7.982;2023-06-26T02:09:37;96815.09;;;16.90;67.45
48800;BME280;34611;47.964;7.982;2023-06-26T02:16:37;96822.78;;;16.91;67.54
48800;BME280;34611;47.964;7.982;2023-06-26T02:23:37;96830.84;;;16.90;67.34
48800;BME280;34611;47.964;7.982;2023-06-26T02:30:39;96837.72;;;16.91;67.47
48800;BME280;34611;47.964;7.982;2023-06-26T02:37:39;96834.28;;;16.90;67.44
48800;BME280;34611;47.964;7.982;2023-06-26T02:44:39;96836.91;;;16.90;67.39
48800;BME280;34611;47.964;7.982;2023-06-26T02:51:39;96826.41;;;16.90;67.43
48800;BME280;34611;47.964;7.982;2023-06-26T02:58:47;96826.41;;;16.90;67.44
48800;BME280;34611;47.964;7.982;2023-06-26T03:05:47;96824.59;;;16.91;67.36
48800;BME280;34611;47.964;7.982;2023-06-26T03:12:48;96831.66;;;16.90;67.36
48800;BME280;34611;47.964;7.982;2023-06-26T03:19:51;96830.84;;;16.90;67.34
48800;BME280;34611;47.964;7.982;2023-06-26T03:27:03;96824.59;;;16.91;67.44
48800;BME280;34611;47.964;7.982;2023-06-26T03:34:03;96836.09;;;16.90;67.46
48800;BME280;34611;47.964;7.982;2023-06-26T03:41:04;96835.25;;;16.89;67.38
48800;BME280;34611;47.964;7.982;2023-06-26T03:48:04;96842.16;;;16.90;67.44
48800;BME280;34611;47.964;7.982;2023-06-26T03:55:05;96844.78;;;16.90;67.50
48800;BME280;34611;47.964;7.982;2023-06-26T04:02:06;96852.66;;;16.90;67.50
48800;BME280;34611;47.964;7.982;2023-06-26T04:09:06;96843.97;;;16.90;67.45
48800;BME280;34611;47.964;7.982;2023-06-26T04:16:06;96856.25;;;16.89;67.36
48800;BME280;34611;47.964;7.982;2023-06-26T04:23:07;96870.22;;;16.90;67.40
48800;BME280;34611;47.964;7.982;2023-06-26T04:30:07;96869.22;;;16.91;67.38
48800;BME280;34611;47.964;7.982;2023-06-26T04:37:08;96860.69;;;16.89;67.42
48800;BME280;34611;47.964;7.982;2023-06-26T04:44:09;96862.34;;;16.90;67.50
48800;BME280;34611;47.964;7.982;2023-06-26T04:51:10;96863.00;;;17.00;67.04
48800;BME280;34611;47.964;7.982;2023-06-26T04:58:10;96871.69;;;16.92;67.33
48800;BME280;34611;47.964;7.982;2023-06-26T05:05:10;96865.78;;;16.90;67.36
48800;BME280;34611;47.964;7.982;2023-06-26T05:12:11;96863.16;;;16.90;67.47
48800;BME280;34611;47.964;7.982;2023-06-26T05:19:12;96860.53;;;16.90;67.52
48800;BME280;34611;47.964;7.982;2023-06-26T05:26:13;96861.50;;;16.89;67.43
48800;BME280;34611;47.964;7.982;2023-06-26T05:33:13;96868.41;;;16.90;67.52
48800;BME280;34611;47.964;7.982;2023-06-26T05:40:14;96863.16;;;16.90;67.39
48800;BME280;34611;47.964;7.982;2023-06-26T05:47:15;96854.47;;;16.90;67.46
48800;BME280;34611;47.964;7.982;2023-06-26T05:54:15;96856.25;;;16.89;67.43
48800;BME280;34611;47.964;7.982;2023-06-26T06:01:16;96856.25;;;16.89;67.53
48800;BME280;34611;47.964;7.982;2023-06-26T06:08:16;96864.13;;;16.89;67.38
48800;BME280;34611;47.964;7.982;2023-06-26T06:15:16;96864.97;;;16.90;67.53
48800;BME280;34611;47.964;7.982;2023-06-26T06:22:17;96861.50;;;16.89;67.52
48800;BME280;34611;47.964;7.982;2023-06-26T06:29:17;96851.00;;;16.89;67.52
48800;BME280;34611;47.964;7.982;2023-06-26T06:36:19;96847.56;;;16.89;67.50
48800;BME280;34611;47.964;7.982;2023-06-26T06:43:19;96857.09;;;16.90;67.46
48800;BME280;34611;47.964;7.982;2023-06-26T06:50:20;96864.13;;;16.89;67.37
48800;BME280;34611;47.964;7.982;2023-06-26T06:57:21;96863.16;;;16.90;67.41
48800;BME280;34611;47.964;7.982;2023-06-26T07:04:21;96865.78;;;16.90;67.47
48800;BME280;34611;47.964;7.982;2023-06-26T07:11:21;96869.38;;;16.89;67.38
48800;BME280;34611;47.964;7.982;2023-06-26T07:18:22;96880.75;;;16.90;67.50
48800;BME280;34611;47.964;7.982;2023-06-26T07:25:22;96882.53;;;16.89;67.38
48800;BME280;34611;47.964;7.982;2023-06-26T07:32:22;96872.03;;;16.89;67.45
48800;BME280;34611;47.964;7.982;2023-06-26T07:39:22;96872.88;;;16.90;67.47
48800;BME280;34611;47.964;7.982;2023-06-26T07:46:23;96867.59;;;16.90;67.34
48800;BME280;34611;47.964;7.982;2023-06-26T07:53:23;96864.97;;;16.90;67.43
48800;BME280;34611;47.964;7.982;2023-06-26T08:00:23;96861.50;;;16.89;67.52
48800;BME280;34611;47.964;7.982;2023-06-26T08:07:26;96864.13;;;16.89;67.46
48800;BME280;34611;47.964;7.982;2023-06-26T08:14:27;96857.09;;;16.90;67.43
48800;BME280;34611;47.964;7.982;2023-06-26T08:21:27;96855.44;;;16.89;67.54
48800;BME280;34611;47.964;7.982;2023-06-26T08:28:27;96856.25;;;16.89;67.40
48800;BME280;34611;47.964;7.982;2023-06-26T08:35:27;96848.38;;;16.89;67.35
48800;BME280;34611;47.964;7.982;2023-06-26T08:42:27;96845.75;;;16.89;67.44
48800;BME280;34611;47.964;7.982;2023-06-26T08:49:30;96841.34;;;16.90;67.40
48800;BME280;34611;47.964;7.982;2023-06-26T08:56:36;96846.59;;;16.90;67.46
48800;BME280;34611;47.964;7.982;2023-06-26T09:03:37;96849.22;;;16.90;67.47
48800;BME280;34611;47.964;7.982;2023-06-26T09:10:37;96851.00;;;16.89;67.47
48800;BME280;34611;47.964;7.982;2023-06-26T09:17:38;96863.16;;;16.90;67.35
48800;BME280;34611;47.964;7.982;2023-06-26T09:24:43;96866.75;;;16.89;67.47
48800;BME280;34611;47.964;7.982;2023-06-26T09:31:44;96874.47;;;16.91;67.51
48800;BME280;34611;47.964;7.982;2023-06-26T09:38:44;96882.53;;;16.89;67.47
48800;BME280;34611;47.964;7.982;2023-06-26T09:45:44;96894.69;;;16.90;67.46
48800;BME280;34611;47.964;7.982;2023-06-26T09:52:44;96894.69;;;16.90;67.47
48800;BME280;34611;47.964;7.982;2023-06-26T09:59:45;96907.81;;;16.90;67.45
48800;BME280;34611;47.964;7.982;2023-06-26T10:06:48;96929.63;;;16.91;67.46
48800;BME280;34611;47.964;7.982;2023-06-26T10:13:51;96934.06;;;16.90;67.51
48800;BME280;34611;47.964;7.982;2023-06-26T10:20:55;96939.31;;;16.90;67.45
48800;BME280;34611;47.964;7.982;2023-06-26T10:27:58;96949.81;;;16.90;67.33
48800;BME280;34611;47.964;7.982;2023-06-26T10:34:59;96959.50;;;16.90;67.44
48800;BME280;34611;47.964;7.982;2023-06-26T10:42:08;96966.38;;;16.91;67.35
48800;BME280;34611;47.964;7.982;2023-06-26T10:49:10;96952.44;;;16.90;67.38
48800;BME280;34611;47.964;7.982;2023-06-26T10:56:12;96957.69;;;16.90;67.35
48800;BME280;34611;47.964;7.982;2023-06-26T11:03:26;96957.69;;;16.90;67.43
48800;BME280;34611;47.964;7.982;2023-06-26T11:10:29;96952.44;;;16.90;67.45
48800;BME280;34611;47.964;7.982;2023-06-26T11:17:29;96950.63;;;16.91;67.51
48800;BME280;34611;47.964;7.982;2023-06-26T11:24:30;96945.53;;;16.89;67.47
48800;BME280;34611;47.964;7.982;2023-06-26T11:31:32;96945.53;;;16.89;67.35
48800;BME280;34611;47.964;7.982;2023-06-26T11:38:38;96942.75;;;16.91;67.45
48800;BME280;34611;47.964;7.982;2023-06-26T11:45:39;96953.25;;;16.91;67.40
48800;BME280;34611;47.964;7.982;2023-06-26T11:52:41;96955.88;;;16.91;67.54
48800;BME280;34611;47.964;7.982;2023-06-26T11:59:41;96948.81;;;16.91;67.40
48800;BME280;34611;47.964;7.982;2023-06-26T12:06:45;96931.44;;;16.90;67.36
48800;BME280;34611;47.964;7.982;2023-06-26T12:13:46;96945.38;;;16.91;67.50
48800;BME280;34611;47.964;7.982;2023-06-26T12:20:46;96952.44;;;16.90;67.37
48800;BME280;34611;47.964;7.982;2023-06-26T12:27:47;96955.88;;;16.91;67.43
48800;BME280;34611;47.964;7.982;2023-06-26T12:34:48;96967.19;;;16.91;67.46
48800;BME280;34611;47.964;7.982;2023-06-26T12:41:51;96967.19;;;16.91;67.41
48800;BME280;34611;47.964;7.982;2023-06-26T12:48:51;96962.78;;;16.92;67.35
48800;BME280;34611;47.964;7.982;2023-06-26T12:55:54;96953.25;;;16.91;67.47
48800;BME280;34611;47.964;7.982;2023-06-26T13:02:54;96955.06;;;16.90;67.47
48800;BME280;34611;47.964;7.982;2023-06-26T13:09:55;96954.06;;;16.91;67.42
48800;BME280;34611;47.964;7.982;2023-06-26T13:16:55;96948.00;;;16.91;67.49
48800;BME280;34611;47.964;7.982;2023-06-26T13:23:56;96943.56;;;16.91;67.54
48800;BME280;34611;47.964;7.982;2023-06-26T13:30:56;96945.38;;;16.91;67.50
48800;BME280;34611;47.964;7.982;2023-06-26T13:37:56;96938.31;;;16.91;67.37
48800;BME280;34611;47.964;7.982;2023-06-26T13:44:57;96925.38;;;16.90;67.55
48800;BME280;34611;47.964;7.982;2023-06-26T13:51:57;96922.56;;;16.91;67.34
48800;BME280;34611;47.964;7.982;2023-06-26T13:58:57;96924.38;;;16.91;67.50
48800;BME280;34611;47.964;7.982;2023-06-26T14:05:58;96923.41;;;16.92;67.49
48800;BME280;34611;47.964;7.982;2023-06-26T14:12:59;96919.94;;;16.91;67.43
48800;BME280;34611;47.964;7.982;2023-06-26T14:19:59;96925.19;;;16.91;67.49
48800;BME280;34611;47.964;7.982;2023-06-26T14:26:59;96925.19;;;16.91;67.51
48800;BME280;34611;47.964;7.982;2023-06-26T14:34:00;96925.19;;;16.91;67.47
48800;BME280;34611;47.964;7.982;2023-06-26T14:41:00;96923.56;;;16.90;67.48
48800;BME280;34611;47.964;7.982;2023-06-26T14:48:00;96927.00;;;16.91;67.44
48800;BME280;34611;47.964;7.982;2023-06-26T14:55:00;96927.81;;;16.91;67.50
48800;BME280;34611;47.964;7.982;2023-06-26T15:02:01;96927.81;;;16.91;67.50
48800;BME280;34611;47.964;7.982;2023-06-26T15:09:01;96927.00;;;16.91;67.54
48800;BME280;34611;47.964;7.982;2023-06-26T15:16:02;96924.22;;;16.92;67.41
48800;BME280;34611;47.964;7.982;2023-06-26T15:23:02;96920.94;;;16.90;67.51
48800;BME280;34611;47.964;7.982;2023-06-26T15:30:03;96920.78;;;16.92;67.40
48800;BME280;34611;47.964;7.982;2023-06-26T15:37:03;96925.19;;;16.91;67.44
48800;BME280;34611;47.964;7.982;2023-06-26T15:44:04;96914.69;;;16.91;67.54
48800;BME280;34611;47.964;7.982;2023-06-26T15:51:04;96918.16;;;16.92;67.44
48800;BME280;34611;47.964;7.982;2023-06-26T15:58:04;96917.31;;;16.91;67.46
48800;BME280;34611;47.964;7.982;2023-06-26T16:05:05;96918.97;;;16.92;67.52
48800;BME280;34611;47.964;7.982;2023-06-26T16:12:05;96922.41;;;16.93;67.48
48800;BME280;34611;47.964;7.982;2023-06-26T16:19:05;96928.59;;;17.08;67.84
48800;BME280;34611;47.964;7.982;2023-06-26T16:26:07;96940.22;;;17.22;68.02
48800;BME280;34611;47.964;7.982;2023-06-26T16:33:07;96932.69;;;17.67;70.03
48800;BME280;34611;47.964;7.982;2023-06-26T16:40:07;96932.47;;;17.37;70.56
48800;BME280;34611;47.964;7.982;2023-06-26T16:47:08;96933.13;;;17.39;69.75
48800;BME280;34611;47.964;7.982;2023-06-26T16:54:09;96946.09;;;17.40;69.01
48800;BME280;34611;47.964;7.982;2023-06-26T17:01:10;96960.84;;;17.42;68.99
48800;BME280;34611;47.964;7.982;2023-06-26T17:08:10;96958.88;;;17.44;68.69
48800;BME280;34611;47.964;7.982;2023-06-26T17:15:10;96970.22;;;17.44;68.69
48800;BME280;34611;47.964;7.982;2023-06-26T17:22:10;96967.41;;;17.46;68.55
48800;BME280;34611;47.964;7.982;2023-06-26T17:29:11;96981.22;;;17.48;68.44
48800;BME280;34611;47.964;7.982;2023-06-26T17:36:11;96986.31;;;17.49;68.37
48800;BME280;34611;47.964;7.982;2023-06-26T17:43:11;96997.63;;;17.50;68.29
48800;BME280;34611;47.964;7.982;2023-06-26T17:50:12;96997.59;;;17.66;68.39
48800;BME280;34611;47.964;7.982;2023-06-26T17:57:13;97009.28;;;17.55;68.28
48800;BME280;34611;47.964;7.982;2023-06-26T18:04:14;97017.34;;;17.54;68.26
48800;BME280;34611;47.964;7.982;2023-06-26T18:11:14;97029.50;;;17.55;68.28
48800;BME280;34611;47.964;7.982;2023-06-26T18:18:14;97026.88;;;17.55;68.24
48800;BME280;34611;47.964;7.982;2023-06-26T18:25:15;97040.00;;;17.55;68.20
48800;BME280;34611;47.964;7.982;2023-06-26T18:32:15;97051.19;;;17.57;68.16
48800;BME280;34611;47.964;7.982;2023-06-26T18:39:15;97046.91;;;17.56;68.02
48800;BME280;34611;47.964;7.982;2023-06-26T18:46:16;97056.44;;;17.57;68.11
48800;BME280;34611;47.964;7.982;2023-06-26T18:53:16;97069.59;;;17.57;68.01
48800;BME280;34611;47.964;7.982;2023-06-26T19:00:16;97058.06;;;17.58;67.98
48800;BME280;34611;47.964;7.982;2023-06-26T19:07:18;97063.31;;;17.58;68.00
48800;BME280;34611;47.964;7.982;2023-06-26T19:14:18;97078.13;;;17.59;67.98
48800;BME280;34611;47.964;7.982;2023-06-26T19:21:18;97091.28;;;17.59;67.88
48800;BME280;34611;47.964;7.982;2023-06-26T19:28:19;97097.34;;;17.59;67.92
48800;BME280;34611;47.964;7.982;2023-06-26T19:35:20;97098.16;;;17.60;67.86
48800;BME280;34611;47.964;7.982;2023-06-26T19:42:22;97106.88;;;17.60;67.75
48800;BME280;34611;47.964;7.982;2023-06-26T19:49:23;97099.16;;;17.59;67.58
48800;BME280;34611;47.964;7.982;2023-06-26T19:56:23;97113.91;;;17.60;67.59
48800;BME280;34611;47.964;7.982;2023-06-26T20:03:25;97123.47;;;17.61;67.52
48800;BME280;34611;47.964;7.982;2023-06-26T20:10:25;97138.44;;;17.60;67.55
48800;BME280;34611;47.964;7.982;2023-06-26T20:17:25;97148.94;;;17.60;67.47
48800;BME280;34611;47.964;7.982;2023-06-26T20:24:26;97153.19;;;17.62;67.39
48800;BME280;34611;47.964;7.982;2023-06-26T20:31:26;97159.47;;;17.60;67.38
48800;BME280;34611;47.964;7.982;2023-06-26T20:38:27;97170.78;;;17.61;67.48
48800;BME280;34611;47.964;7.982;2023-06-26T20:45:27;97170.78;;;17.61;67.31
48800;BME280;34611;47.964;7.982;2023-06-26T20:52:27;97181.31;;;17.61;67.31
48800;BME280;34611;47.964;7.982;2023-06-26T20:59:29;97183.94;;;17.61;67.29
48800;BME280;34611;47.964;7.982;2023-06-26T21:06:29;97181.31;;;17.61;67.34
48800;BME280;34611;47.964;7.982;2023-06-26T21:13:29;97188.38;;;17.60;67.38
48800;BME280;34611;47.964;7.982;2023-06-26T21:20:30;97197.88;;;17.62;67.37
48800;BME280;34611;47.964;7.982;2023-06-26T21:27:30;97207.59;;;17.61;67.27
48800;BME280;34611;47.964;7.982;2023-06-26T21:34:30;97215.47;;;17.61;67.28
48800;BME280;34611;47.964;7.982;2023-06-26T21:41:30;97214.66;;;17.60;67.29
48800;BME280;34611;47.964;7.982;2023-06-26T21:48:31;97228.63;;;17.61;67.36
48800;BME280;34611;47.964;7.982;2023-06-26T21:55:31;97238.31;;;17.60;67.41
48800;BME280;34611;47.964;7.982;2023-06-26T22:02:31;97243.59;;;17.60;67.34
48800;BME280;34611;47.964;7.982;2023-06-26T22:09:31;97242.75;;;17.60;67.40
48800;BME280;34611;47.964;7.982;2023-06-26T22:16:32;97245.38;;;17.60;67.40
48800;BME280;34611;47.964;7.982;2023-06-26T22:23:32;97243.59;;;17.60;67.48
48800;BME280;34611;47.964;7.982;2023-06-26T22:30:32;97245.38;;;17.60;67.31
48800;BME280;34611;47.964;7.982;2023-06-26T22:37:33;97237.47;;;17.60;67.43
48800;BME280;34611;47.964;7.982;2023-06-26T22:44:33;97232.22;;;17.60;67.33
48800;BME280;34611;47.964;7.982;2023-06-26T22:51:33;97241.09;;;17.59;67.39
48800;BME280;34611;47.964;7.982;2023-06-26T22:58:36;97239.28;;;17.59;67.40
48800;BME280;34611;47.964;7.982;2023-06-26T23:05:37;97238.47;;;17.59;67.28
48800;BME280;34611;47.964;7.982;2023-06-26T23:12:37;97246.38;;;17.59;67.42
48800;BME280;34611;47.964;7.982;2023-06-26T23:19:38;97240.28;;;17.58;67.46
48800;BME280;34611;47.964;7.982;2023-06-26T23:26:38;97242.06;;;17.58;67.53
48800;BME280;34611;47.964;7.982;2023-06-26T23:33:39;97244.72;;;17.58;67.37
48800;BME280;34611;47.964;7.982;2023-06-26T23:40:41;97244.72;;;17.58;67.49
48800;BME280;34611;47.964;7.982;2023-06-26T23:47:42;97246.53;;;17.57;67.49
48800;BME280;34611;47.964;7.982;2023-06-26T23:54:42;97250.81;;;17.58;67.46
